createdAt,value
2019-01-29T00:02:33.380Z,4.67
2019-01-29T00:05:04.404Z,3.65
2019-01-29T00:07:34.291Z,3.80
2019-01-29T00:10:36.530Z,4.47
2019-01-29T00:13:07.617Z,5.00
2019-01-29T00:15:36.412Z,3.98
2019-01-29T00:18:50.672Z,4.10
2019-01-29T00:21:19.127Z,4.57
2019-01-29T00:23:48.219Z,4.03
2019-01-29T00:26:28.112Z,4.67
2019-01-29T00:28:57.663Z,4.37
2019-01-29T00:31:53.800Z,4.30
2019-01-29T00:34:22.783Z,4.43
2019-01-29T00:36:53.349Z,3.85
2019-01-29T00:47:11.450Z,3.95
2019-01-29T00:49:43.143Z,5.05
2019-01-29T00:52:12.074Z,4.72
2019-01-29T01:02:15.778Z,4.35
2019-01-29T01:04:50.761Z,4.97
2019-01-29T01:07:24.593Z,4.43
2019-01-29T01:17:09.647Z,4.65
2019-01-29T01:19:49.295Z,4.25
2019-01-29T01:22:27.571Z,4.92
2019-01-29T01:24:56.366Z,5.12
2019-01-29T01:27:26.662Z,4.53
2019-01-29T01:29:55.726Z,5.50
2019-01-29T01:32:24.629Z,5.30
2019-01-29T01:34:58.232Z,4.05
2019-01-29T01:37:28.493Z,7.37
2019-01-29T01:39:57.671Z,6.35
2019-01-29T01:42:26.492Z,4.97
2019-01-29T01:44:55.531Z,4.62
2019-01-29T01:47:25.386Z,6.22
2019-01-29T01:50:06.737Z,6.47
2019-01-29T01:52:39.723Z,5.30
2019-01-29T01:55:11.332Z,6.20
2019-01-29T01:57:43.647Z,5.00
2019-01-29T02:00:17.814Z,4.95
2019-01-29T02:02:48.200Z,4.95
2019-01-29T02:05:17.152Z,5.12
2019-01-29T02:07:47.294Z,4.65
2019-01-29T02:10:27.228Z,4.55
2019-01-29T02:13:07.171Z,4.47
2019-01-29T02:15:36.372Z,4.03
2019-01-29T02:18:05.428Z,4.65
2019-01-29T02:20:39.615Z,4.10
2019-01-29T02:23:10.109Z,4.30
2019-01-29T02:25:38.924Z,4.40
2019-01-29T02:28:07.817Z,4.37
2019-01-29T02:30:36.657Z,4.62
2019-01-29T02:33:09.887Z,4.47
2019-01-29T02:35:38.827Z,4.15
2019-01-29T02:38:07.573Z,4.80
2019-01-29T02:40:36.470Z,3.58
2019-01-29T02:43:05.722Z,4.17
2019-01-29T02:45:34.504Z,4.40
2019-01-29T02:48:03.417Z,4.35
2019-01-29T02:50:32.873Z,4.03
2019-01-29T02:53:01.690Z,4.95
2019-01-29T02:55:31.413Z,4.20
2019-01-29T02:58:00.242Z,3.75
2019-01-29T03:00:38.817Z,5.20
2019-01-29T03:03:12.636Z,4.73
2019-01-29T03:05:46.821Z,3.63
2019-01-29T03:08:20.729Z,4.50
2019-01-29T03:10:56.334Z,4.30
2019-01-29T03:13:34.425Z,4.50
2019-01-29T03:16:13.378Z,4.35
2019-01-29T03:18:47.147Z,4.00
2019-01-29T03:21:20.290Z,4.22
2019-01-29T03:23:56.196Z,3.98
2019-01-29T03:26:30.612Z,4.53
2019-01-29T03:28:58.942Z,4.37
2019-01-29T03:31:28.971Z,4.03
2019-01-29T03:33:58.123Z,4.67
2019-01-29T03:36:28.337Z,4.10
2019-01-29T03:38:57.229Z,3.85
2019-01-29T03:41:26.060Z,3.90
2019-01-29T03:43:55.938Z,3.03
2019-01-29T03:46:26.722Z,3.70
2019-01-29T03:48:55.657Z,4.50
2019-01-29T03:51:24.486Z,3.75
2019-01-29T03:53:53.739Z,3.52
2019-01-29T03:56:32.483Z,3.10
2019-01-29T03:59:02.465Z,3.43
2019-01-29T04:01:32.711Z,3.57
2019-01-29T04:04:05.379Z,3.90
2019-01-29T04:06:38.412Z,3.10
2019-01-29T04:09:09.677Z,3.90
2019-01-29T04:11:39.863Z,4.00
2019-01-29T04:14:11.745Z,3.47
2019-01-29T04:16:40.786Z,3.97
2019-01-29T04:19:10.112Z,3.50
2019-01-29T04:21:39.033Z,3.52
2019-01-29T04:24:09.359Z,3.90
2019-01-29T04:26:38.237Z,3.93
2019-01-29T04:29:07.756Z,3.70
2019-01-29T04:31:37.967Z,3.50
2019-01-29T04:34:09.916Z,3.40
2019-01-29T04:36:39.931Z,3.30
2019-01-29T04:39:08.474Z,3.10
2019-01-29T04:41:37.311Z,3.47
2019-01-29T04:44:06.822Z,4.12
2019-01-29T04:46:35.696Z,4.35
2019-01-29T04:49:04.604Z,4.25
2019-01-29T04:51:37.010Z,4.17
2019-01-29T04:54:07.300Z,4.12
2019-01-29T04:56:36.177Z,4.45
2019-01-29T04:59:06.576Z,4.25
2019-01-29T05:01:37.647Z,4.43
2019-01-29T05:04:11.046Z,4.95
2019-01-29T05:06:49.710Z,4.03
2019-01-29T05:09:22.704Z,3.98
2019-01-29T05:11:56.020Z,4.10
2019-01-29T05:14:32.491Z,3.95
2019-01-29T05:17:06.369Z,3.77
2019-01-29T05:19:41.575Z,4.03
2019-01-29T05:22:17.608Z,3.83
2019-01-29T05:24:54.364Z,4.03
2019-01-29T05:27:28.229Z,3.90
2019-01-29T05:30:02.719Z,4.45
2019-01-29T05:32:47.026Z,3.70
2019-01-29T05:35:17.908Z,3.95
2019-01-29T05:37:46.739Z,3.87
2019-01-29T05:40:20.440Z,4.22
2019-01-29T05:42:49.838Z,4.50
2019-01-29T05:45:20.514Z,4.45
2019-01-29T05:47:51.664Z,3.95
2019-01-29T05:50:20.696Z,3.80
2019-01-29T05:52:51.843Z,4.17
2019-01-29T05:55:20.908Z,4.35
2019-01-29T05:57:49.704Z,4.78
2019-01-29T06:00:39.201Z,7.03
2019-01-29T06:03:08.602Z,4.80
2019-01-29T06:05:38.618Z,3.90
2019-01-29T06:08:07.834Z,4.25
2019-01-29T06:10:38.132Z,3.83
2019-01-29T06:13:12.054Z,3.90
2019-01-29T06:15:40.384Z,4.72
2019-01-29T06:18:09.145Z,3.70
2019-01-29T06:20:37.585Z,4.33
2019-01-29T06:23:06.162Z,4.80
2019-01-29T06:25:35.413Z,5.20
2019-01-29T06:28:06.667Z,5.08
2019-01-29T06:30:35.232Z,4.92
2019-01-29T06:33:03.967Z,4.50
2019-01-29T06:35:32.574Z,4.37
2019-01-29T06:38:03.189Z,4.10
2019-01-29T06:40:33.684Z,5.22
2019-01-29T06:43:08.325Z,4.37
2019-01-29T06:45:41.679Z,4.33
2019-01-29T06:48:19.230Z,4.70
2019-01-29T06:50:47.624Z,4.30
2019-01-29T06:53:18.303Z,3.90
2019-01-29T06:55:50.420Z,6.03
2019-01-29T06:58:22.610Z,5.33
2019-01-29T07:00:56.295Z,5.78
2019-01-29T07:03:31.684Z,4.85
2019-01-29T07:06:01.208Z,4.75
2019-01-29T07:08:33.075Z,6.00
2019-01-29T07:11:03.067Z,7.83
2019-01-29T07:13:39.071Z,5.20
2019-01-29T07:16:09.145Z,4.83
2019-01-29T07:18:45.409Z,4.40
2019-01-29T07:21:20.230Z,4.97
2019-01-29T07:23:52.310Z,4.25
2019-01-29T07:26:20.841Z,4.22
2019-01-29T07:28:50.810Z,4.42
2019-01-29T07:31:19.655Z,4.12
2019-01-29T07:33:51.158Z,4.25
2019-01-29T07:36:22.703Z,3.90
2019-01-29T07:38:51.442Z,4.30
2019-01-29T07:41:20.378Z,4.47
2019-01-29T07:43:49.247Z,4.45
2019-01-29T07:46:18.328Z,5.95
2019-01-29T07:48:46.844Z,5.20
2019-01-29T07:51:19.148Z,4.67
2019-01-29T07:53:54.618Z,4.53
2019-01-29T07:59:33.062Z,4.42
2019-01-29T08:05:03.874Z,4.75
2019-01-29T08:07:40.932Z,4.40
2019-01-29T08:10:15.646Z,4.87
2019-01-29T08:12:45.201Z,5.25
2019-01-29T08:15:27.041Z,6.90
2019-01-29T08:17:57.565Z,6.83
2019-01-29T08:20:27.259Z,5.40
2019-01-29T08:22:59.824Z,5.37
2019-01-29T08:25:32.206Z,6.05
2019-01-29T08:28:11.183Z,5.33
2019-01-29T08:30:43.099Z,5.70
2019-01-29T08:36:24.673Z,6.42
2019-01-29T08:38:59.816Z,5.85
2019-01-29T08:41:36.899Z,5.12
2019-01-29T08:44:13.491Z,6.30
2019-01-29T08:46:56.339Z,5.67
2019-01-29T08:49:31.639Z,7.50
2019-01-29T08:52:11.643Z,6.17
2019-01-29T08:54:45.195Z,6.08
2019-01-29T08:57:15.737Z,6.40
2019-01-29T08:59:54.740Z,6.33
2019-01-29T09:02:24.371Z,5.90
2019-01-29T09:04:53.946Z,6.67
2019-01-29T09:07:23.909Z,5.83
2019-01-29T09:09:56.030Z,5.60
2019-01-29T09:12:24.478Z,6.20
2019-01-29T09:14:53.155Z,4.97
2019-01-29T09:17:21.687Z,5.78
2019-01-29T09:19:50.630Z,4.97
2019-01-29T09:22:22.019Z,5.55
2019-01-29T09:24:50.818Z,5.62
2019-01-29T09:27:19.955Z,5.90
2019-01-29T09:29:48.450Z,5.87
2019-01-29T09:32:20.063Z,6.08
2019-01-29T09:34:48.122Z,6.10
2019-01-29T09:37:17.317Z,5.95
2019-01-29T09:39:46.302Z,5.30
2019-01-29T09:42:15.911Z,6.20
2019-01-29T09:44:47.119Z,5.92
2019-01-29T09:47:22.062Z,5.30
2019-01-29T09:49:52.924Z,6.33
2019-01-29T09:52:24.891Z,6.03
2019-01-29T09:54:55.297Z,7.00
2019-01-29T09:57:29.118Z,5.67
2019-01-29T09:59:57.807Z,6.25
2019-01-29T10:02:26.766Z,5.72
2019-01-29T10:04:56.202Z,5.07
2019-01-29T10:07:28.564Z,5.55
2019-01-29T10:10:03.010Z,5.40
2019-01-29T10:12:35.333Z,5.53
2019-01-29T10:15:13.376Z,5.83
2019-01-29T10:17:46.454Z,5.93
2019-01-29T10:20:17.380Z,5.50
2019-01-29T10:23:00.286Z,5.00
2019-01-29T10:25:37.760Z,5.20
2019-01-29T10:28:09.085Z,4.72
2019-01-29T10:30:40.787Z,4.73
2019-01-29T10:33:18.399Z,4.65
2019-01-29T10:35:56.223Z,4.45
2019-01-29T10:38:29.296Z,5.22
2019-01-29T10:40:57.691Z,4.10
2019-01-29T10:43:29.342Z,3.90
2019-01-29T10:46:02.619Z,3.90
2019-01-29T10:48:32.706Z,3.77
2019-01-29T10:51:03.326Z,3.33
2019-01-29T10:53:33.007Z,3.90
2019-01-29T10:56:06.179Z,3.97
2019-01-29T10:58:37.623Z,4.28
2019-01-29T11:01:09.252Z,3.75
2019-01-29T11:03:45.485Z,3.35
2019-01-29T11:06:18.567Z,2.98
2019-01-29T11:08:50.014Z,3.92
2019-01-29T11:11:24.308Z,4.20
2019-01-29T11:13:55.286Z,3.45
2019-01-29T11:16:28.002Z,3.97
2019-01-29T11:19:03.438Z,3.10
2019-01-29T11:21:37.650Z,3.93
2019-01-29T11:24:09.845Z,4.87
2019-01-29T11:26:52.677Z,4.90
2019-01-29T11:29:36.986Z,3.37
2019-01-29T11:32:06.450Z,3.87
2019-01-29T11:34:36.685Z,3.97
2019-01-29T11:37:18.705Z,3.87
2019-01-29T11:39:53.925Z,4.10
2019-01-29T11:42:27.480Z,3.80
2019-01-29T11:44:59.867Z,4.27
2019-01-29T11:50:25.838Z,4.70
2019-01-29T11:53:00.538Z,3.90
2019-01-29T11:55:28.946Z,4.10
2019-01-29T11:57:57.512Z,3.83
2019-01-29T12:00:44.625Z,3.77
2019-01-29T12:03:13.319Z,3.87
2019-01-29T12:05:45.793Z,3.80
2019-01-29T12:08:14.568Z,4.47
2019-01-29T12:10:47.098Z,4.13
2019-01-29T12:13:14.953Z,4.83
2019-01-29T12:15:47.446Z,5.03
2019-01-29T12:18:16.607Z,3.97
2019-01-29T12:20:49.518Z,3.50
2019-01-29T12:23:19.786Z,3.70
2019-01-29T12:25:49.280Z,3.95
2019-01-29T12:28:18.456Z,3.60
2019-01-29T12:30:47.242Z,4.12
2019-01-29T12:33:17.494Z,4.47
2019-01-29T12:35:48.736Z,4.67
2019-01-29T12:38:17.998Z,4.27
2019-01-29T12:40:48.184Z,4.30
2019-01-29T12:43:17.000Z,4.93
2019-01-29T12:45:48.327Z,4.40
2019-01-29T12:48:18.044Z,4.23
2019-01-29T12:50:53.046Z,4.20
2019-01-29T12:53:26.605Z,4.50
2019-01-29T12:55:56.306Z,5.03
2019-01-29T12:59:14.484Z,4.40
2019-01-29T13:01:49.938Z,4.23
2019-01-29T13:07:46.642Z,5.13
2019-01-29T13:10:51.221Z,5.20
2019-01-29T13:13:21.957Z,5.47
2019-01-29T13:16:22.938Z,4.60
2019-01-29T13:18:51.464Z,4.80
2019-01-29T13:21:59.478Z,4.83
2019-01-29T13:24:31.924Z,6.23
2019-01-29T13:27:04.929Z,4.30
2019-01-29T13:29:35.278Z,5.40
2019-01-29T13:32:05.550Z,4.47
2019-01-29T13:35:12.479Z,5.37
2019-01-29T13:37:41.026Z,4.43
2019-01-29T13:41:03.650Z,6.27
2019-01-29T13:43:36.030Z,4.33
2019-01-29T13:46:30.411Z,4.37
2019-01-29T13:49:00.405Z,4.17
2019-01-29T13:54:44.144Z,4.90
2019-01-29T13:57:39.600Z,4.97
2019-01-29T14:00:16.837Z,3.37
2019-01-29T14:03:22.421Z,3.70
2019-01-29T14:05:50.934Z,4.63
2019-01-29T14:08:50.271Z,5.23
2019-01-29T14:11:20.477Z,4.73
2019-01-29T14:14:35.588Z,4.20
2019-01-29T14:17:07.419Z,4.13
2019-01-29T14:22:53.930Z,4.23
2019-01-29T14:25:52.262Z,4.80
2019-01-29T14:31:42.415Z,3.93
2019-01-29T14:34:23.787Z,4.30
2019-01-29T14:43:15.924Z,3.90
2019-01-29T14:45:46.985Z,4.20
2019-01-29T14:49:07.702Z,4.27
2019-01-29T14:51:41.730Z,4.40
2019-01-29T14:54:58.927Z,4.20
2019-01-29T14:57:33.262Z,4.13
2019-01-29T15:01:01.731Z,3.73
2019-01-29T15:03:41.059Z,2.90
2019-01-29T15:30:36.530Z,3.35
2019-01-29T15:40:07.591Z,5.77
2019-01-29T15:42:37.782Z,5.08
2019-01-29T15:45:10.800Z,6.53
2019-01-29T15:51:44.638Z,3.72
2019-01-29T15:54:16.055Z,3.90
2019-01-29T15:56:46.765Z,3.37
2019-01-29T15:59:15.756Z,4.40
2019-01-29T16:01:45.280Z,3.92
2019-01-29T16:04:56.552Z,4.10
2019-01-29T16:07:26.323Z,4.30
2019-01-29T16:10:46.695Z,4.30
2019-01-29T16:13:16.043Z,3.83
2019-01-29T16:16:34.897Z,6.25
2019-01-29T16:19:06.403Z,4.75
2019-01-29T16:21:42.523Z,3.80
2019-01-29T16:24:12.854Z,4.20
2019-01-29T16:26:41.701Z,3.67
2019-01-29T16:29:46.771Z,3.85
2019-01-29T16:32:16.898Z,3.60
2019-01-29T16:47:45.885Z,4.08
2019-01-29T16:50:25.829Z,4.83
2019-01-29T16:55:44.346Z,6.03
2019-01-29T17:01:33.324Z,3.95
2019-01-29T17:14:05.682Z,3.80
2019-01-29T17:16:36.671Z,4.50
2019-01-29T17:26:07.167Z,5.42
2019-01-29T17:28:37.242Z,4.75
2019-01-29T17:31:05.786Z,5.08
2019-01-29T17:37:08.839Z,6.08
2019-01-29T17:39:38.690Z,6.83
2019-01-29T17:42:09.254Z,8.03
2019-01-29T17:44:37.792Z,6.62
2019-01-29T17:50:07.655Z,5.95
2019-01-29T17:52:36.554Z,5.85
2019-01-29T17:55:40.005Z,5.42
2019-01-29T17:58:11.659Z,4.30
2019-01-29T18:07:18.038Z,3.87
2019-01-29T18:09:46.469Z,4.30
2019-01-29T18:12:14.848Z,4.83
2019-01-29T18:15:16.701Z,4.42
2019-01-29T18:17:45.331Z,5.70
2019-01-29T18:23:29.182Z,4.17
2019-01-29T18:26:04.527Z,4.90
2019-01-29T18:29:19.416Z,7.05
2019-01-29T18:31:51.152Z,5.58
2019-01-29T18:34:27.061Z,5.87
2019-01-29T18:36:57.865Z,5.15
2019-01-29T18:39:26.859Z,4.78
2019-01-29T18:42:29.268Z,4.85
2019-01-29T18:45:00.350Z,4.50
2019-01-29T18:47:33.815Z,3.42
2019-01-29T18:56:53.551Z,4.58
2019-01-29T18:59:25.285Z,4.05
2019-01-29T19:01:53.835Z,3.95
2019-01-29T19:07:40.274Z,4.33
2019-01-29T19:10:51.486Z,5.72
2019-01-29T19:13:19.970Z,4.45
2019-01-29T19:16:17.320Z,4.37
2019-01-29T19:19:06.589Z,3.83
2019-01-29T19:21:39.975Z,3.87
2019-01-29T19:24:24.245Z,4.85
2019-01-29T19:26:59.929Z,3.92
2019-01-29T19:30:01.290Z,3.98
2019-01-29T19:32:34.120Z,4.30
2019-01-29T19:35:40.870Z,5.10
2019-01-29T19:38:17.156Z,4.15
2019-01-29T19:40:47.594Z,3.58
2019-01-29T19:49:33.980Z,4.20
2019-01-29T19:52:06.213Z,3.60
2019-01-29T19:54:38.339Z,3.10
2019-01-29T19:57:07.687Z,3.12
2019-01-29T19:59:39.554Z,3.62
2019-01-29T20:02:10.250Z,3.60
2019-01-29T20:04:39.397Z,3.45
2019-01-29T20:07:10.040Z,3.58
2019-01-29T20:09:41.588Z,3.37
2019-01-29T20:12:10.569Z,3.15
2019-01-29T20:14:45.272Z,3.33
2019-01-29T20:17:14.223Z,3.08
2019-01-29T20:19:49.198Z,3.30
2019-01-29T20:22:22.462Z,3.33
2019-01-29T20:24:55.224Z,2.83
2019-01-29T20:27:24.085Z,3.33
2019-01-29T20:29:58.911Z,3.92
2019-01-29T20:32:31.094Z,2.87
2019-01-29T20:35:00.986Z,2.98
2019-01-29T20:37:31.558Z,3.08
2019-01-29T20:40:00.787Z,4.05
2019-01-29T20:42:35.305Z,2.90
2019-01-29T20:45:06.587Z,3.12
2019-01-29T20:47:42.061Z,2.92
2019-01-29T20:50:17.055Z,4.17
2019-01-29T20:59:41.254Z,3.02
2019-01-29T21:02:18.815Z,3.05
2019-01-29T21:04:47.669Z,3.35
2019-01-29T21:08:20.704Z,3.17
2019-01-29T21:10:51.069Z,3.30
2019-01-29T21:13:20.238Z,3.05
2019-01-29T21:15:58.405Z,3.72
2019-01-29T21:18:29.839Z,3.35
2019-01-29T21:28:09.190Z,3.30
2019-01-29T21:30:44.035Z,3.08
2019-01-29T21:33:10.624Z,3.00
2019-01-29T21:35:42.791Z,3.20
2019-01-29T21:38:15.925Z,3.02
2019-01-29T21:40:46.219Z,2.98
2019-01-29T21:43:18.718Z,2.80
2019-01-29T21:45:47.955Z,3.02
2019-01-29T21:48:42.722Z,3.05
2019-01-29T21:51:15.738Z,2.70
2019-01-29T21:56:58.304Z,3.00
2019-01-29T21:59:26.929Z,4.03
2019-01-29T22:02:10.301Z,2.85
2019-01-29T22:04:38.870Z,3.35
2019-01-29T22:07:07.601Z,3.15
2019-01-29T22:09:36.649Z,3.15
2019-01-29T22:12:05.611Z,2.83
2019-01-29T22:15:04.197Z,2.83
2019-01-29T22:17:33.172Z,3.00
2019-01-29T22:20:01.986Z,2.87
2019-01-29T22:23:20.717Z,3.02
2019-01-29T22:25:49.521Z,2.83
2019-01-29T22:28:18.044Z,2.83
2019-01-29T22:30:53.596Z,3.00
2019-01-29T22:33:22.137Z,3.47
2019-01-29T22:39:08.017Z,2.98
2019-01-29T22:41:36.582Z,2.80
2019-01-29T22:56:45.556Z,2.98
2019-01-29T22:59:14.423Z,3.67
2019-01-29T23:11:24.844Z,3.15
2019-01-29T23:13:53.457Z,3.55
2019-01-29T23:16:24.915Z,3.20
2019-01-29T23:18:53.421Z,4.05
2019-01-29T23:21:26.272Z,3.85
2019-01-29T23:24:01.640Z,3.45
2019-01-29T23:26:30.211Z,3.60
2019-01-29T23:42:21.086Z,3.92
2019-01-29T23:48:00.982Z,3.90
2019-01-29T23:50:29.976Z,3.42
2019-01-29T23:53:00.104Z,4.33
2019-01-29T23:55:29.792Z,3.67
2019-01-29T23:57:58.498Z,3.52
